Time;durP1;ratioP1;P1;durP2;ratioP2;P2;SDS_P1;SDS_P2;PMS_P1;PMS_P2;Temp;Humidity;BMP_temperature;BMP_pressure;BME280_temperature;BME280_humidity;BME280_pressure;Samples;Min_cycle;Max_cycle;Signal;HPM_P1;HPM_P2
2023/05/20 00:01:30;;;;;;;3.63;3.33;;;;;;;12.36;100.00;100431.44;5072181;28;20219;-75
2023/05/20 00:03:56;;;;;;;3.40;3.10;;;;;;;12.34;100.00;100428.00;5076566;28;20981;-75
2023/05/20 00:06:21;;;;;;;3.80;3.50;;;;;;;12.32;100.00;100427.22;5054452;28;20212;-75
2023/05/20 00:08:47;;;;;;;4.40;4.00;;;;;;;12.27;100.00;100424.66;5055946;28;20193;-75
2023/05/20 00:11:12;;;;;;;4.17;3.87;;;;;;;12.26;100.00;100430.72;5077221;28;20181;-76
2023/05/20 00:13:38;;;;;;;3.77;3.37;;;;;;;12.25;100.00;100436.78;5073153;28;20382;-76
2023/05/20 00:16:04;;;;;;;4.47;3.87;;;;;;;12.27;100.00;100423.81;5074709;28;20640;-75
2023/05/20 00:18:31;;;;;;;5.47;3.80;;;;;;;12.27;100.00;100432.44;5077077;28;20272;-76
2023/05/20 00:20:57;;;;;;;3.67;3.43;;;;;;;12.28;100.00;100435.91;5101915;28;20372;-76
2023/05/20 00:23:22;;;;;;;4.70;4.30;;;;;;;12.28;100.00;100428.97;5104898;28;20177;-76
2023/05/20 00:25:48;;;;;;;4.77;4.27;;;;;;;12.30;100.00;100427.22;5091635;28;20763;-74
2023/05/20 00:28:14;;;;;;;4.40;4.00;;;;;;;12.33;100.00;100421.97;5074974;28;20250;-75
2023/05/20 00:30:40;;;;;;;5.10;4.30;;;;;;;12.36;100.00;100421.06;5070592;28;20187;-75
2023/05/20 00:33:06;;;;;;;4.80;4.40;;;;;;;12.36;100.00;100421.06;5071239;28;20213;-75
2023/05/20 00:35:31;;;;;;;4.20;3.80;;;;;;;12.37;100.00;100420.19;5069190;28;20271;-76
2023/05/20 00:37:56;;;;;;;4.53;3.87;;;;;;;12.40;100.00;100417.56;5073551;28;20205;-75
2023/05/20 00:40:23;;;;;;;5.13;4.13;;;;;;;12.42;100.00;100410.63;5070337;28;20198;-75
2023/05/20 00:42:49;;;;;;;5.57;4.57;;;;;;;12.48;100.00;100418.28;5054752;28;20201;-75
2023/05/20 00:45:14;;;;;;;4.77;4.20;;;;;;;12.53;100.00;100412.19;5074373;28;20181;-75
2023/05/20 00:47:41;;;;;;;4.80;4.40;;;;;;;12.57;100.00;100419.06;5071652;28;20201;-76
2023/05/20 00:50:09;;;;;;;5.30;4.27;;;;;;;12.61;100.00;100420.72;5070251;28;20189;-75
2023/05/20 00:52:35;;;;;;;5.40;4.63;;;;;;;12.62;100.00;100418.09;5070690;28;20211;-76
2023/05/20 00:55:01;;;;;;;5.37;4.83;;;;;;;12.66;100.00;100434.47;5072995;28;20281;-75
2023/05/20 00:57:27;;;;;;;4.70;4.20;;;;;;;12.67;100.00;100422.38;5074605;28;20205;-74
2023/05/20 00:59:53;;;;;;;4.60;4.20;;;;;;;12.67;100.00;100432.75;5072600;28;20192;-75
2023/05/20 01:02:18;;;;;;;4.90;4.50;;;;;;;12.65;100.00;100425.84;5074761;28;20191;-76
2023/05/20 01:04:46;;;;;;;4.83;4.10;;;;;;;12.63;100.00;100431.91;5072521;28;20302;-75
2023/05/20 01:07:13;;;;;;;4.87;4.00;;;;;;;12.62;100.00;100422.44;5076117;28;20202;-75
2023/05/20 01:09:39;;;;;;;4.77;4.37;;;;;;;12.61;100.00;100418.13;5076064;28;20170;-75
2023/05/20 01:12:20;;;;;;;5.87;4.70;;;;;;;12.59;100.00;100418.13;5074463;28;20195;-76
2023/05/20 01:14:55;;;;;;;5.83;4.80;;;;;;;12.57;100.00;100425.09;5077809;28;20196;-75
2023/05/20 01:17:25;;;;;;;4.60;4.20;;;;;;;12.54;100.00;100419.09;5075432;28;20204;-75
2023/05/20 01:19:53;;;;;;;4.93;4.53;;;;;;;12.49;100.00;100422.59;5056981;28;20198;-75
2023/05/20 01:22:23;;;;;;;6.17;4.80;;;;;;;12.46;100.00;100425.28;5075324;28;20193;-75
2023/05/20 01:24:52;;;;;;;6.03;4.63;;;;;;;12.44;100.00;100424.44;5074860;28;20214;-76
2023/05/20 01:27:19;;;;;;;5.40;5.00;;;;;;;12.43;100.00;100421.84;5072917;28;20253;-75
2023/05/20 01:29:49;;;;;;;6.00;5.43;;;;;;;12.44;100.00;100418.38;5072459;28;20211;-76
2023/05/20 01:32:19;;;;;;;5.83;5.23;;;;;;;12.43;100.00;100417.53;5073414;28;20204;-76
2023/05/20 01:34:47;;;;;;;5.00;4.60;;;;;;;12.43;100.00;100424.44;5058795;28;20239;-75
2023/05/20 01:37:13;;;;;;;5.10;4.60;;;;;;;12.44;100.00;100415.78;5075954;28;20254;-76
2023/05/20 01:39:42;;;;;;;5.27;4.60;;;;;;;12.43;100.00;100419.25;5056552;28;20221;-75
2023/05/20 01:42:09;;;;;;;5.10;4.60;;;;;;;12.42;100.00;100415.81;5076156;28;20188;-75
2023/05/20 01:44:35;;;;;;;5.37;4.07;;;;;;;12.44;100.00;100414.03;5075776;28;20920;-75
2023/05/20 01:47:00;;;;;;;4.87;4.40;;;;;;;12.45;100.00;100404.50;5056581;28;20210;-75
2023/05/20 01:49:26;;;;;;;5.77;4.57;;;;;;;12.48;100.00;100407.06;5074262;28;20186;-75
2023/05/20 01:51:51;;;;;;;5.47;4.17;;;;;;;12.53;100.00;100407.00;5072885;28;20201;-75
2023/05/20 01:54:16;;;;;;;6.10;4.80;;;;;;;12.52;100.00;100403.56;5057970;28;20236;-74
2023/05/20 01:56:42;;;;;;;4.93;4.47;;;;;;;12.55;100.00;100405.22;5073832;28;20756;-75
2023/05/20 01:59:07;;;;;;;5.10;4.37;;;;;;;12.55;100.00;100398.31;5074449;28;20282;-75
2023/05/20 02:01:32;;;;;;;4.53;4.13;;;;;;;12.56;100.00;100402.59;5054935;28;20260;-75
2023/05/20 02:03:58;;;;;;;4.87;4.33;;;;;;;12.59;100.00;100396.53;5074688;28;20191;-75
2023/05/20 02:06:23;;;;;;;4.43;4.03;;;;;;;12.59;100.00;100399.97;5074738;28;20281;-73
2023/05/20 02:08:48;;;;;;;4.73;4.23;;;;;;;12.60;100.00;100393.03;5076877;28;20187;-75
2023/05/20 02:11:14;;;;;;;4.10;3.80;;;;;;;12.59;100.00;100389.56;5058511;28;20184;-74
2023/05/20 02:13:39;;;;;;;4.00;3.50;;;;;;;12.63;100.00;100382.59;5075114;28;20235;-75
2023/05/20 02:16:05;;;;;;;4.50;4.10;;;;;;;12.65;100.00;100383.44;5074025;28;20199;-75
2023/05/20 02:18:31;;;;;;;5.30;4.17;;;;;;;12.66;100.00;100379.94;5075112;28;20628;-75
2023/05/20 02:21:01;;;;;;;4.57;4.17;;;;;;;12.68;100.00;100379.94;5072845;28;20193;-75
2023/05/20 02:23:26;;;;;;;5.10;4.57;;;;;;;12.70;100.00;100373.84;5075799;28;20238;-74
2023/05/20 02:25:51;;;;;;;5.20;4.70;;;;;;;12.69;100.00;100364.31;5079398;28;20627;-75
2023/05/20 02:28:17;;;;;;;5.30;4.50;;;;;;;12.70;100.00;100362.59;5078703;28;20215;-76
2023/05/20 02:30:42;;;;;;;6.03;4.23;;;;;;;12.68;100.00;100352.22;5073997;28;20189;-75
2023/05/20 02:33:08;;;;;;;5.10;4.60;;;;;;;12.68;100.00;100360.00;5061379;28;20554;-76
2023/05/20 02:35:34;;;;;;;4.07;3.77;;;;;;;12.65;100.00;100366.13;5076730;28;20174;-75
2023/05/20 02:37:59;;;;;;;4.80;4.33;;;;;;;12.63;100.00;100367.88;5074963;28;20218;-75
2023/05/20 02:40:25;;;;;;;4.60;4.20;;;;;;;12.63;100.00;100365.28;5074826;28;20197;-75
2023/05/20 02:42:50;;;;;;;4.70;4.30;;;;;;;12.62;100.00;100367.91;5074053;28;20193;-75
2023/05/20 02:45:15;;;;;;;4.30;3.90;;;;;;;12.59;100.00;100363.63;5057167;28;20943;-75
2023/05/20 02:47:41;;;;;;;4.80;4.27;;;;;;;12.56;100.00;100368.84;5075024;28;20286;-74
2023/05/20 02:50:07;;;;;;;5.23;3.90;;;;;;;12.53;100.00;100362.84;5057975;28;21041;-78
2023/05/20 02:52:33;;;;;;;4.53;3.87;;;;;;;12.48;100.00;100363.78;5059313;28;20212;-76
2023/05/20 02:54:59;;;;;;;4.07;3.67;;;;;;;12.45;100.00;100368.16;5056176;28;20259;-75
2023/05/20 02:57:26;;;;;;;4.10;3.70;;;;;;;12.44;100.00;100372.53;5055702;28;20677;-76
2023/05/20 02:59:51;;;;;;;4.53;3.87;;;;;;;12.43;100.00;100365.59;5073377;28;20221;-75
2023/05/20 03:02:16;;;;;;;4.07;3.77;;;;;;;12.42;100.00;100371.69;5058581;28;20227;-75
2023/05/20 03:04:42;;;;;;;6.10;3.80;;;;;;;12.43;100.00;100378.59;5075710;28;20193;-75
2023/05/20 03:07:07;;;;;;;5.03;3.97;;;;;;;12.44;100.00;100369.91;5072090;28;20193;-76
2023/05/20 03:09:33;;;;;;;4.10;3.70;;;;;;;12.42;100.00;100374.28;5073621;28;20190;-76
2023/05/20 03:11:58;;;;;;;5.90;4.00;;;;;;;12.40;100.00;100363.06;5070078;28;20183;-76
2023/05/20 03:14:23;;;;;;;5.07;3.87;;;;;;;12.42;100.00;100378.59;5071379;28;20543;-76
2023/05/20 03:16:49;;;;;;;7.00;4.03;;;;;;;12.43;100.00;100369.94;5075010;28;20197;-75
2023/05/20 03:19:15;;;;;;;5.37;3.70;;;;;;;12.43;100.00;100373.41;5072863;28;20196;-75
2023/05/20 03:21:40;;;;;;;4.63;4.00;;;;;;;12.44;100.00;100374.25;5071484;28;20212;-76
2023/05/20 03:24:06;;;;;;;4.40;3.90;;;;;;;12.41;100.00;100366.50;5073228;28;20189;-76
2023/05/20 03:26:32;;;;;;;5.77;4.33;;;;;;;12.40;100.00;100370.84;5072933;28;20221;-75
2023/05/20 03:28:58;;;;;;;6.13;4.30;;;;;;;12.37;100.00;100381.25;5073482;28;20173;-77
2023/05/20 03:31:23;;;;;;;6.23;3.77;;;;;;;12.35;100.00;100383.03;5073481;28;20188;-75
2023/05/20 03:33:48;;;;;;;7.53;3.93;;;;;;;12.29;100.00;100377.94;5071673;28;20191;-75
2023/05/20 03:36:13;;;;;;;4.00;3.70;;;;;;;12.24;100.00;100385.78;5055691;28;20736;-75
2023/05/20 03:38:39;;;;;;;4.80;4.33;;;;;;;12.19;100.00;100383.25;5074809;28;20190;-76
2023/05/20 03:41:04;;;;;;;4.83;4.43;;;;;;;12.15;100.00;100378.13;5073022;28;20182;-76
2023/05/20 03:43:29;;;;;;;5.07;3.97;;;;;;;12.14;100.00;100374.69;5072995;28;20186;-76
2023/05/20 03:45:55;;;;;;;6.10;3.83;;;;;;;12.11;100.00;100374.72;5072701;28;20230;-75
2023/05/20 03:48:20;;;;;;;5.70;4.27;;;;;;;12.09;100.00;100388.59;5071155;28;20201;-76
2023/05/20 03:50:46;;;;;;;8.10;4.33;;;;;;;12.08;100.00;100386.88;5068699;28;20753;-76
2023/05/20 03:53:11;;;;;;;6.80;4.00;;;;;;;12.08;100.00;100389.47;5057255;28;20636;-76
2023/05/20 03:55:38;;;;;;;4.73;4.27;;;;;;;12.07;100.00;100387.75;5053749;28;20183;-76
2023/05/20 03:58:03;;;;;;;4.73;3.80;;;;;;;12.08;100.00;100390.31;5074635;28;20210;-76
2023/05/20 04:00:30;;;;;;;4.50;4.10;;;;;;;12.09;100.00;100398.97;5070484;28;20616;-75
2023/05/20 04:02:55;;;;;;;6.20;3.90;;;;;;;12.09;100.00;100392.03;5073626;28;20188;-76
2023/05/20 04:05:23;;;;;;;4.57;3.80;;;;;;;12.11;100.00;100387.69;5074536;28;20275;-77
2023/05/20 04:07:48;;;;;;;4.00;3.60;;;;;;;12.14;100.00;100390.25;5080115;28;20256;-76
2023/05/20 04:10:13;;;;;;;4.27;3.87;;;;;;;12.16;100.00;100388.50;5057420;28;20196;-75
2023/05/20 04:12:40;;;;;;;5.27;4.13;;;;;;;12.20;100.00;100389.31;5071077;28;20763;-75
2023/05/20 04:15:06;;;;;;;4.60;4.20;;;;;;;12.22;100.00;100387.53;5073725;28;20222;-76
2023/05/20 04:17:31;;;;;;;6.27;4.60;;;;;;;12.23;100.00;100393.56;5073617;28;20258;-75
2023/05/20 04:19:58;;;;;;;6.03;4.50;;;;;;;12.25;100.00;100386.63;5070885;28;22023;-74
2023/05/20 04:22:24;;;;;;;4.60;4.17;;;;;;;12.27;100.00;100395.25;5072630;28;20781;-77
2023/05/20 04:24:49;;;;;;;4.57;3.80;;;;;;;12.27;100.00;100385.72;5074827;28;20190;-76
2023/05/20 04:27:15;;;;;;;3.63;3.33;;;;;;;12.32;100.00;100386.53;5076358;28;20230;-75
2023/05/20 04:29:44;;;;;;;4.17;3.77;;;;;;;12.36;100.00;100384.72;5058258;28;20180;-76
2023/05/20 04:32:11;;;;;;;4.20;3.73;;;;;;;12.43;100.00;100385.50;5073951;28;20187;-75
2023/05/20 04:34:36;;;;;;;4.00;3.60;;;;;;;12.46;100.00;100388.06;5073440;28;20263;-76
2023/05/20 04:37:02;;;;;;;3.83;3.53;;;;;;;12.51;100.00;100386.25;5074088;28;20242;-75
2023/05/20 04:39:27;;;;;;;5.07;4.00;;;;;;;12.54;100.00;100385.34;5076275;28;20174;-76
2023/05/20 04:41:53;;;;;;;4.20;3.83;;;;;;;12.54;100.00;100387.94;5072469;28;20183;-76
2023/05/20 04:44:19;;;;;;;4.67;3.67;;;;;;;12.52;100.00;100384.50;5057100;28;20182;-76
2023/05/20 04:46:44;;;;;;;5.43;3.47;;;;;;;12.56;100.00;100386.19;5073330;28;20207;-75
2023/05/20 04:49:10;;;;;;;4.60;3.87;;;;;;;12.59;100.00;100386.97;5073846;28;20171;-76
2023/05/20 04:51:36;;;;;;;4.20;3.80;;;;;;;12.69;100.00;100382.50;5074943;28;20213;-75
2023/05/20 04:54:02;;;;;;;4.40;3.57;;;;;;;12.77;99.55;100380.66;5058255;28;20225;-75
2023/05/20 04:56:27;;;;;;;3.77;3.23;;;;;;;12.86;98.95;100376.19;5055177;28;20673;-76
2023/05/20 04:58:53;;;;;;;4.80;3.63;;;;;;;12.91;98.15;100366.56;5053467;28;20208;-75
2023/05/20 05:01:18;;;;;;;3.50;3.17;;;;;;;13.02;97.61;100369.84;5073233;28;20590;-75
2023/05/20 05:03:43;;;;;;;5.90;3.40;;;;;;;13.04;97.86;100380.19;5069866;28;20186;-76
2023/05/20 05:06:09;;;;;;;3.80;3.50;;;;;;;13.07;97.39;100370.63;5072520;28;20191;-75
2023/05/20 05:08:34;;;;;;;4.50;3.67;;;;;;;13.08;97.60;100367.09;5072289;28;20275;-76
2023/05/20 05:10:59;;;;;;;5.83;3.40;;;;;;;13.05;97.69;100359.38;5072834;28;20304;-76
2023/05/20 05:13:25;;;;;;;4.13;3.47;;;;;;;13.15;97.55;100370.47;5074895;28;20280;-76
2023/05/20 05:16:00;;;;;;;5.17;3.70;;;;;;;13.19;97.38;100360.88;5072890;28;22164;-77
2023/05/20 05:18:26;;;;;;;5.10;3.63;;;;;;;13.18;97.40;100353.97;5055614;28;20350;-77
2023/05/20 05:20:59;;;;;;;4.43;3.60;;;;;;;13.14;97.86;100354.91;5070826;28;20557;-77
2023/05/20 05:23:25;;;;;;;4.90;3.77;;;;;;;13.16;97.66;100366.97;5072639;28;20185;-75
2023/05/20 05:25:51;;;;;;;5.23;3.90;;;;;;;13.16;97.98;100351.38;5072833;28;20205;-75
2023/05/20 05:28:16;;;;;;;4.07;3.67;;;;;;;13.21;97.36;100356.50;5073403;28;20198;-75
2023/05/20 05:30:42;;;;;;;6.27;4.00;;;;;;;13.18;97.46;100346.16;5070633;28;20192;-76
2023/05/20 05:33:07;;;;;;;7.57;4.63;;;;;;;13.26;97.83;100339.94;5077235;28;20799;-75
2023/05/20 05:35:32;;;;;;;4.03;3.67;;;;;;;13.46;97.14;100333.50;5074109;28;20198;-76
2023/05/20 05:37:58;;;;;;;4.80;3.37;;;;;;;14.11;95.35;100337.34;5074948;28;20271;-76
2023/05/20 05:40:23;;;;;;;5.30;3.70;;;;;;;15.43;90.12;100341.84;5075884;28;20228;-77
2023/05/20 05:42:48;;;;;;;4.83;3.33;;;;;;;16.81;84.70;100344.63;5070690;28;20189;-76
2023/05/20 05:45:14;;;;;;;4.77;3.67;;;;;;;17.49;80.51;100343.09;5073521;28;20669;-76
2023/05/20 05:47:39;;;;;;;5.80;3.37;;;;;;;17.44;79.77;100337.19;5073209;28;20209;-74
2023/05/20 05:50:05;;;;;;;3.37;3.07;;;;;;;16.91;80.50;100343.38;5075028;28;20194;-76
2023/05/20 05:52:30;;;;;;;6.10;3.57;;;;;;;16.51;82.00;100339.50;5078217;28;20181;-76
2023/05/20 05:54:56;;;;;;;5.53;3.20;;;;;;;16.20;83.87;100338.72;5079675;28;20215;-76
2023/05/20 05:57:21;;;;;;;3.80;3.47;;;;;;;15.88;84.86;100343.22;5078164;28;20296;-76
2023/05/20 05:59:46;;;;;;;4.53;3.23;;;;;;;16.13;84.96;100335.44;5060827;28;20178;-76
2023/05/20 06:02:13;;;;;;;4.50;3.33;;;;;;;16.48;83.82;100331.78;5076820;28;20213;-76
2023/05/20 06:04:38;;;;;;;4.93;3.07;;;;;;;16.82;82.48;100334.09;5079691;28;20219;-76
2023/05/20 06:07:04;;;;;;;5.13;3.47;;;;;;;17.00;81.92;100337.00;5085233;28;20216;-76
2023/05/20 06:09:29;;;;;;;4.37;3.17;;;;;;;16.74;82.36;100341.34;5082844;28;20204;-76
2023/05/20 06:11:55;;;;;;;3.87;3.53;;;;;;;16.80;82.70;100335.06;5082230;28;21006;-76
2023/05/20 06:14:20;;;;;;;3.50;3.20;;;;;;;17.27;81.12;100335.19;5075535;28;20206;-76
2023/05/20 06:16:46;;;;;;;4.23;3.10;;;;;;;17.54;79.66;100340.31;5079986;28;20228;-76
2023/05/20 06:19:11;;;;;;;3.33;3.03;;;;;;;17.42;79.21;100330.31;5077903;28;20228;-76
2023/05/20 06:21:37;;;;;;;3.60;3.30;;;;;;;17.51;79.93;100325.59;5081971;28;20185;-76
2023/05/20 06:24:03;;;;;;;3.57;3.03;;;;;;;18.21;78.24;100332.56;5083072;28;20243;-75
2023/05/20 06:26:28;;;;;;;3.53;3.00;;;;;;;18.89;75.98;100316.66;5091483;28;20197;-76
2023/05/20 06:28:53;;;;;;;4.23;3.40;;;;;;;18.56;75.63;100325.03;5082330;28;20183;-76
2023/05/20 06:31:19;;;;;;;4.40;3.27;;;;;;;17.85;77.49;100320.00;5080970;28;20190;-75
2023/05/20 06:33:44;;;;;;;3.57;3.03;;;;;;;17.54;79.00;100323.78;5078632;28;20264;-76
2023/05/20 06:36:10;;;;;;;6.00;3.20;;;;;;;17.19;80.74;100319.78;5085113;28;20185;-75
2023/05/20 06:38:35;;;;;;;3.60;3.30;;;;;;;17.13;81.43;100319.97;5080254;28;20319;-76
2023/05/20 06:41:00;;;;;;;4.13;3.27;;;;;;;16.99;82.03;100320.50;5082349;28;20187;-76
2023/05/20 06:43:26;;;;;;;4.20;3.67;;;;;;;16.96;82.57;100319.72;5085249;28;20274;-75
2023/05/20 06:45:52;;;;;;;3.43;3.13;;;;;;;17.37;81.95;100315.63;5081851;28;20189;-74
2023/05/20 06:48:17;;;;;;;4.47;3.57;;;;;;;18.11;80.15;100313.75;5054267;28;20270;-77
2023/05/20 06:50:44;;;;;;;5.97;3.50;;;;;;;19.24;76.16;100314.25;5080643;28;20611;-75
2023/05/20 06:53:09;;;;;;;3.57;3.23;;;;;;;20.00;74.40;100308.19;5060479;28;20200;-76
2023/05/20 06:55:36;;;;;;;3.60;3.20;;;;;;;20.39;72.83;100311.59;5074211;28;20184;-76
2023/05/20 06:58:02;;;;;;;5.60;3.73;;;;;;;20.57;72.37;100301.91;5075483;28;20201;-76
2023/05/20 07:00:27;;;;;;;3.73;3.07;;;;;;;21.49;71.04;100303.31;5064891;28;20196;-75
2023/05/20 07:02:52;;;;;;;3.97;3.33;;;;;;;22.07;69.47;100301.88;5080076;28;20216;-76
2023/05/20 07:05:18;;;;;;;4.17;3.77;;;;;;;22.35;68.18;100305.56;5069173;28;20210;-77
2023/05/20 07:07:43;;;;;;;3.83;3.17;;;;;;;22.41;67.75;100296.44;5064306;28;20817;-75
2023/05/20 07:10:09;;;;;;;4.77;4.03;;;;;;;22.43;67.36;100299.00;5051453;28;20190;-76
2023/05/20 07:12:34;;;;;;;3.90;3.13;;;;;;;22.69;67.29;100298.31;5080383;28;20636;-76
2023/05/20 07:15:00;;;;;;;4.10;3.63;;;;;;;22.74;67.22;100295.41;5079517;28;20204;-75
2023/05/20 07:17:26;;;;;;;4.90;3.80;;;;;;;22.01;68.50;100283.78;5076386;28;20210;-76
2023/05/20 07:19:52;;;;;;;3.90;3.40;;;;;;;21.47;70.12;100289.38;5083392;28;20461;-76
2023/05/20 07:22:17;;;;;;;3.73;3.37;;;;;;;20.81;71.52;100285.81;5083996;28;20229;-76
2023/05/20 07:24:43;;;;;;;3.80;3.40;;;;;;;20.21;73.36;100282.66;5061483;28;20204;-76
2023/05/20 07:27:08;;;;;;;3.97;3.67;;;;;;;19.78;74.64;100284.72;5083547;28;20200;-76
2023/05/20 07:29:35;;;;;;;3.83;3.53;;;;;;;19.25;76.77;100284.50;5080230;28;20200;-76
2023/05/20 07:32:00;;;;;;;4.27;3.90;;;;;;;19.13;77.24;100283.28;5081919;28;20192;-76
2023/05/20 07:34:25;;;;;;;4.20;3.80;;;;;;;18.95;78.96;100278.84;5084222;28;20193;-77
2023/05/20 07:36:52;;;;;;;4.70;3.67;;;;;;;19.15;78.89;100286.66;5083987;28;20212;-77
2023/05/20 07:39:17;;;;;;;4.83;4.33;;;;;;;18.95;79.11;100276.22;5079494;28;21086;-76
2023/05/20 07:41:42;;;;;;;5.23;4.07;;;;;;;19.01;79.68;100282.06;5076428;28;20190;-75
2023/05/20 07:44:10;;;;;;;3.97;3.67;;;;;;;19.18;79.36;100283.06;5080988;28;20181;-77
2023/05/20 07:46:36;;;;;;;4.90;4.50;;;;;;;18.82;80.11;100268.00;5074612;28;20211;-76
2023/05/20 07:49:02;;;;;;;4.40;4.00;;;;;;;18.82;80.68;100260.16;5073931;28;20648;-77
2023/05/20 07:51:27;;;;;;;5.23;4.80;;;;;;;18.77;81.20;100252.50;5075949;28;20185;-76
2023/05/20 07:53:53;;;;;;;4.43;4.03;;;;;;;18.80;82.12;100260.22;5084798;28;20242;-75
2023/05/20 07:56:18;;;;;;;6.97;4.30;;;;;;;19.47;80.20;100252.88;5086428;28;20173;-76
2023/05/20 07:58:52;;;;;;;4.43;4.03;;;;;;;19.60;79.16;100257.53;5063582;28;20220;-76
2023/05/20 08:01:18;;;;;;;5.83;4.40;;;;;;;19.37;79.51;100248.09;5058584;28;20200;-75
2023/05/20 08:03:43;;;;;;;4.37;3.97;;;;;;;19.57;79.78;100244.56;5073983;28;20197;-75
2023/05/20 08:06:08;;;;;;;4.27;3.90;;;;;;;19.38;79.63;100245.44;5081465;28;20581;-77
2023/05/20 08:08:35;;;;;;;4.83;4.40;;;;;;;19.43;78.59;100240.81;5060837;28;20191;-76
2023/05/20 08:11:00;;;;;;;4.77;4.13;;;;;;;19.38;79.61;100245.44;5077935;28;21051;-76
2023/05/20 08:13:26;;;;;;;5.53;4.93;;;;;;;19.47;79.21;100250.25;5075554;28;20287;-77
2023/05/20 08:15:54;;;;;;;4.47;4.07;;;;;;;19.55;79.00;100244.63;5075210;28;20195;-75
2023/05/20 08:18:20;;;;;;;4.60;4.20;;;;;;;19.52;79.11;100234.25;5080066;28;20217;-76
2023/05/20 08:20:46;;;;;;;4.27;3.97;;;;;;;19.36;80.28;100225.44;5075721;28;20204;-78
2023/05/20 08:23:11;;;;;;;4.60;4.10;;;;;;;19.49;80.04;100226.56;5070677;28;20574;-76
2023/05/20 08:25:37;;;;;;;4.63;4.03;;;;;;;19.94;78.95;100220.06;5055166;28;20192;-77
2023/05/20 08:28:05;;;;;;;4.00;3.70;;;;;;;20.05;78.48;100211.63;5072967;28;20328;-75
2023/05/20 08:30:31;;;;;;;4.30;3.93;;;;;;;20.18;78.59;100211.84;5079791;28;20276;-75
2023/05/20 08:32:56;;;;;;;4.87;3.80;;;;;;;20.22;79.05;100215.16;5075193;28;20189;-76
2023/05/20 08:35:22;;;;;;;4.70;4.30;;;;;;;20.27;78.93;100214.97;5071679;28;20249;-78
2023/05/20 08:37:48;;;;;;;4.37;4.03;;;;;;;20.10;78.81;100208.78;5069404;28;20361;-77
2023/05/20 08:40:13;;;;;;;4.67;4.23;;;;;;;20.18;79.01;100205.78;5075432;28;20184;-78
2023/05/20 08:42:43;;;;;;;4.73;4.33;;;;;;;20.25;79.76;100210.63;5059445;28;20236;-76
2023/05/20 08:45:11;;;;;;;5.43;4.97;;;;;;;19.82;78.98;100204.00;5073492;28;20206;-76
2023/05/20 08:47:41;;;;;;;6.13;5.50;;;;;;;19.67;79.76;100201.19;5073227;28;20572;-77
2023/05/20 08:50:08;;;;;;;5.60;5.13;;;;;;;19.77;79.52;100205.06;5075426;28;20185;-76
2023/05/20 08:52:36;;;;;;;6.03;5.50;;;;;;;20.04;79.02;100209.06;5075210;28;20226;-75
2023/05/20 08:55:01;;;;;;;5.83;5.33;;;;;;;19.93;79.43;100202.59;5073760;28;20216;-76
2023/05/20 08:57:28;;;;;;;5.80;5.20;;;;;;;20.00;79.51;100194.38;5073363;28;20305;-76
2023/05/20 08:59:54;;;;;;;5.90;5.30;;;;;;;19.98;79.97;100204.13;5071388;28;20322;-77
2023/05/20 09:02:19;;;;;;;5.43;4.93;;;;;;;19.96;79.90;100201.56;5079273;28;20275;-76
2023/05/20 09:04:44;;;;;;;6.07;5.43;;;;;;;20.11;79.73;100194.72;5078295;28;21022;-76
2023/05/20 09:07:10;;;;;;;5.97;5.40;;;;;;;20.00;79.09;100203.13;5081107;28;20201;-74
2023/05/20 09:09:35;;;;;;;6.60;5.63;;;;;;;19.93;79.13;100199.97;5073172;28;20195;-77
2023/05/20 09:12:02;;;;;;;5.57;5.07;;;;;;;19.94;78.88;100211.31;5078363;28;20653;-76
2023/05/20 09:14:28;;;;;;;11.27;5.30;;;;;;;20.35;78.06;100200.47;5073752;28;20205;-76
2023/05/20 09:16:53;;;;;;;5.93;5.20;;;;;;;20.04;78.28;100217.78;5075468;28;20265;-74
2023/05/20 09:19:21;;;;;;;6.17;5.17;;;;;;;20.18;79.38;100219.75;5077508;28;20189;-76
2023/05/20 09:21:46;;;;;;;6.30;5.10;;;;;;;20.28;80.16;100214.88;5073263;28;20194;-75
2023/05/20 09:24:12;;;;;;;5.13;4.73;;;;;;;20.45;78.91;100213.16;5056878;28;20190;-76
2023/05/20 09:26:37;;;;;;;6.40;5.80;;;;;;;20.25;77.74;100239.53;5081329;28;20247;-77
2023/05/20 09:29:03;;;;;;;7.07;5.43;;;;;;;20.28;78.63;100225.38;5077146;28;20181;-75
2023/05/20 09:31:32;;;;;;;5.30;4.90;;;;;;;20.35;78.08;100221.50;5079254;28;20181;-76
2023/05/20 09:33:59;;;;;;;6.00;5.50;;;;;;;20.03;78.36;100216.13;5080583;28;20676;-78
2023/05/20 09:36:28;;;;;;;4.60;4.30;;;;;;;20.34;78.41;100214.56;5064240;28;20181;-75
2023/05/20 09:38:58;;;;;;;5.63;5.10;;;;;;;20.29;78.46;100202.56;5080051;28;20220;-77
2023/05/20 09:41:31;;;;;;;5.57;5.10;;;;;;;20.11;78.69;100202.59;5079610;28;20560;-76
2023/05/20 09:43:57;;;;;;;6.23;5.40;;;;;;;19.89;79.35;100203.66;5078135;28;20188;-77
2023/05/20 09:46:23;;;;;;;5.87;5.37;;;;;;;19.86;79.56;100195.88;5083542;28;20189;-75
2023/05/20 09:48:49;;;;;;;6.30;5.80;;;;;;;19.95;79.08;100192.84;5076816;28;20200;-76
2023/05/20 09:51:15;;;;;;;6.00;5.50;;;;;;;20.05;79.82;100185.34;5073684;28;20197;-77
2023/05/20 09:53:41;;;;;;;5.93;5.43;;;;;;;20.00;79.53;100187.38;5076547;28;20193;-77
2023/05/20 09:56:07;;;;;;;6.23;5.73;;;;;;;20.22;79.41;100186.28;5078698;28;20197;-76
2023/05/20 09:58:35;;;;;;;5.73;5.23;;;;;;;20.35;79.19;100191.75;5081405;28;20215;-77
2023/05/20 10:01:00;;;;;;;5.43;4.90;;;;;;;20.40;77.77;100185.34;5079644;28;20193;-74
2023/05/20 10:03:27;;;;;;;5.63;5.03;;;;;;;20.75;77.35;100189.69;5080947;28;20181;-77
2023/05/20 10:06:08;;;;;;;5.77;5.27;;;;;;;20.58;77.86;100184.44;5075103;28;20228;-77
2023/05/20 10:08:41;;;;;;;6.50;5.70;;;;;;;20.74;77.62;100173.97;5060282;28;20181;-77
2023/05/20 10:11:28;;;;;;;6.13;4.77;;;;;;;20.74;77.03;100176.59;5081008;28;20185;-76
2023/05/20 10:14:08;;;;;;;5.70;5.20;;;;;;;20.62;77.04;100186.84;5079460;28;20192;-78
2023/05/20 10:16:57;;;;;;;5.50;5.10;;;;;;;20.55;77.03;100170.56;5083307;28;20258;-76
2023/05/20 10:19:31;;;;;;;6.10;5.40;;;;;;;20.41;76.73;100173.88;5071010;28;20197;-77
2023/05/20 10:22:01;;;;;;;5.73;5.20;;;;;;;20.19;76.91;100166.28;5074097;28;20654;-76
2023/05/20 10:24:31;;;;;;;5.67;4.87;;;;;;;20.17;78.25;100172.53;5076821;28;20181;-76
2023/05/20 10:26:57;;;;;;;5.73;5.23;;;;;;;20.50;77.50;100169.94;5070527;28;20275;-76
2023/05/20 10:29:22;;;;;;;5.33;4.93;;;;;;;20.76;76.09;100153.75;5077152;28;20770;-75
2023/05/20 10:31:50;;;;;;;5.03;4.53;;;;;;;21.09;75.94;100160.75;5056927;28;20603;-76
2023/05/20 10:34:16;;;;;;;5.70;4.47;;;;;;;21.16;74.40;100160.31;5050071;28;20660;-77
2023/05/20 10:37:05;;;;;;;4.47;4.17;;;;;;;21.16;73.61;100146.28;5074809;28;20907;-76
2023/05/20 10:39:34;;;;;;;5.57;5.07;;;;;;;20.84;74.19;100139.25;5080217;28;20419;-77
2023/05/20 10:42:09;;;;;;;5.03;4.63;;;;;;;20.66;75.35;100143.66;5077163;28;20193;-76
2023/05/20 10:44:42;;;;;;;5.67;5.00;;;;;;;20.66;76.06;100143.66;5078352;28;20188;-76
2023/05/20 10:47:08;;;;;;;5.27;4.77;;;;;;;20.74;75.52;100148.53;5075349;28;20219;-77
2023/05/20 10:49:37;;;;;;;6.67;5.20;;;;;;;20.85;75.75;100151.47;5072989;28;20191;-77
2023/05/20 10:52:02;;;;;;;5.63;5.13;;;;;;;21.32;74.20;100139.25;5078333;28;20200;-75
2023/05/20 10:54:28;;;;;;;6.03;5.30;;;;;;;21.51;74.82;100147.88;5080580;28;20185;-77
2023/05/20 10:56:53;;;;;;;5.60;5.10;;;;;;;21.34;74.22;100143.56;5064551;28;20217;-76
2023/05/20 10:59:20;;;;;;;5.47;4.90;;;;;;;21.35;74.52;100142.63;5076897;28;20219;-75
2023/05/20 11:01:46;;;;;;;5.83;5.13;;;;;;;21.17;75.11;100156.75;5078991;28;20190;-78
2023/05/20 11:04:14;;;;;;;7.87;5.30;;;;;;;21.22;74.80;100145.09;5063765;28;20189;-78
2023/05/20 11:06:49;;;;;;;5.87;5.37;;;;;;;21.28;75.26;100136.88;5075534;28;20204;-75
2023/05/20 11:09:15;;;;;;;6.03;5.40;;;;;;;21.23;74.45;100126.59;5073631;28;20185;-78
2023/05/20 11:11:40;;;;;;;5.37;4.97;;;;;;;21.26;74.27;100150.09;5064074;28;20192;-76
2023/05/20 11:14:06;;;;;;;5.07;4.63;;;;;;;21.21;74.72;100140.78;5060801;28;20189;-77
2023/05/20 11:16:31;;;;;;;5.03;4.63;;;;;;;21.15;74.38;100116.50;5078048;28;20337;-77
2023/05/20 11:18:56;;;;;;;5.33;4.83;;;;;;;21.14;74.97;100113.94;5076051;28;20210;-76